sensor_id;sensor_type;location;lat;lon;timestamp;pressure;altitude;pressure_sealevel;temperature;humidity
48053;BME280;33824;51.600;5.718;2023-04-25T00:02:25;100913.78;;;7.13;98.14
48053;BME280;33824;51.600;5.718;2023-04-25T00:04:50;100918.19;;;7.22;96.90
48053;BME280;33824;51.600;5.718;2023-04-25T00:07:17;100916.22;;;7.24;96.72
48053;BME280;33824;51.600;5.718;2023-04-25T00:09:43;100923.09;;;7.17;96.99
48053;BME280;33824;51.600;5.718;2023-04-25T00:12:08;100917.31;;;7.04;97.26
48053;BME280;33824;51.600;5.718;2023-04-25T00:14:34;100919.06;;;6.96;98.12
48053;BME280;33824;51.600;5.718;2023-04-25T00:17:00;100928.44;;;6.90;97.81
48053;BME280;33824;51.600;5.718;2023-04-25T00:19:26;100918.44;;;6.84;98.13
48053;BME280;33824;51.600;5.718;2023-04-25T00:21:54;100930.31;;;6.80;98.66
48053;BME280;33824;51.600;5.718;2023-04-25T00:24:20;100930.00;;;6.83;97.63
48053;BME280;33824;51.600;5.718;2023-04-25T00:26:46;100929.63;;;6.78;97.39
48053;BME280;33824;51.600;5.718;2023-04-25T00:29:11;100938.59;;;6.67;98.97
48053;BME280;33824;51.600;5.718;2023-04-25T00:31:37;100935.28;;;6.56;99.66
48053;BME280;33824;51.600;5.718;2023-04-25T00:34:02;100935.53;;;6.62;99.29
48053;BME280;33824;51.600;5.718;2023-04-25T00:36:28;100940.84;;;6.62;99.91
48053;BME280;33824;51.600;5.718;2023-04-25T00:38:54;100928.50;;;6.53;100.00
48053;BME280;33824;51.600;5.718;2023-04-25T00:41:20;100942.03;;;6.50;100.00
48053;BME280;33824;51.600;5.718;2023-04-25T00:43:47;100933.91;;;6.52;100.00
48053;BME280;33824;51.600;5.718;2023-04-25T00:46:13;100936.88;;;6.49;100.00
48053;BME280;33824;51.600;5.718;2023-04-25T00:48:39;100932.00;;;6.44;100.00
48053;BME280;33824;51.600;5.718;2023-04-25T00:51:04;100934.09;;;6.41;100.00
48053;BME280;33824;51.600;5.718;2023-04-25T00:53:30;100937.88;;;6.38;100.00
48053;BME280;33824;51.600;5.718;2023-04-25T00:55:57;100933.56;;;6.37;100.00
48053;BME280;33824;51.600;5.718;2023-04-25T00:58:23;100930.78;;;6.39;100.00
48053;BME280;33824;51.600;5.718;2023-04-25T01:00:50;100931.31;;;6.42;100.00
48053;BME280;33824;51.600;5.718;2023-04-25T01:03:18;100931.28;;;6.52;100.00
48053;BME280;33824;51.600;5.718;2023-04-25T01:05:47;100937.09;;;6.55;100.00
48053;BME280;33824;51.600;5.718;2023-04-25T01:08:13;100933.38;;;6.48;100.00
48053;BME280;33824;51.600;5.718;2023-04-25T01:10:39;100933.81;;;6.44;100.00
48053;BME280;33824;51.600;5.718;2023-04-25T01:13:07;100937.59;;;6.32;100.00
48053;BME280;33824;51.600;5.718;2023-04-25T01:15:32;100940.00;;;6.35;100.00
48053;BME280;33824;51.600;5.718;2023-04-25T01:17:58;100943.59;;;6.34;100.00
48053;BME280;33824;51.600;5.718;2023-04-25T01:20:26;100933.16;;;6.32;100.00
48053;BME280;33824;51.600;5.718;2023-04-25T01:22:54;100944.75;;;6.31;100.00
48053;BME280;33824;51.600;5.718;2023-04-25T01:25:22;100940.84;;;6.25;100.00
48053;BME280;33824;51.600;5.718;2023-04-25T01:27:47;100946.00;;;6.27;100.00
48053;BME280;33824;51.600;5.718;2023-04-25T01:30:13;100942.41;;;6.18;100.00
48053;BME280;33824;51.600;5.718;2023-04-25T01:32:40;100949.78;;;6.15;100.00
48053;BME280;33824;51.600;5.718;2023-04-25T01:35:10;100954.13;;;6.16;100.00
48053;BME280;33824;51.600;5.718;2023-04-25T01:37:40;100963.16;;;6.13;100.00
48053;BME280;33824;51.600;5.718;2023-04-25T01:40:07;100960.38;;;6.15;100.00
48053;BME280;33824;51.600;5.718;2023-04-25T01:42:34;100954.97;;;6.07;100.00
48053;BME280;33824;51.600;5.718;2023-04-25T01:45:01;100956.22;;;6.12;100.00
48053;BME280;33824;51.600;5.718;2023-04-25T01:47:27;100967.75;;;6.21;100.00
48053;BME280;33824;51.600;5.718;2023-04-25T01:49:53;100969.41;;;6.22;100.00
48053;BME280;33824;51.600;5.718;2023-04-25T01:52:18;100955.94;;;6.15;100.00
48053;BME280;33824;51.600;5.718;2023-04-25T01:54:44;100962.34;;;6.03;100.00
48053;BME280;33824;51.600;5.718;2023-04-25T01:57:11;100971.56;;;5.99;100.00
48053;BME280;33824;51.600;5.718;2023-04-25T01:59:36;100969.88;;;6.08;100.00
48053;BME280;33824;51.600;5.718;2023-04-25T02:02:02;100970.25;;;6.13;100.00
48053;BME280;33824;51.600;5.718;2023-04-25T02:04:31;100970.69;;;6.18;100.00
48053;BME280;33824;51.600;5.718;2023-04-25T02:06:56;100972.66;;;6.16;100.00
48053;BME280;33824;51.600;5.718;2023-04-25T02:09:22;100979.34;;;6.20;100.00
48053;BME280;33824;51.600;5.718;2023-04-25T02:11:48;100971.38;;;6.20;100.00
48053;BME280;33824;51.600;5.718;2023-04-25T02:14:13;100974.84;;;6.20;100.00
48053;BME280;33824;51.600;5.718;2023-04-25T02:16:39;100968.03;;;6.18;100.00
48053;BME280;33824;51.600;5.718;2023-04-25T02:19:05;100975.00;;;6.19;100.00
48053;BME280;33824;51.600;5.718;2023-04-25T02:21:31;100981.56;;;6.15;100.00
48053;BME280;33824;51.600;5.718;2023-04-25T02:23:57;100981.84;;;6.12;100.00
48053;BME280;33824;51.600;5.718;2023-04-25T02:26:23;100985.59;;;6.09;100.00
48053;BME280;33824;51.600;5.718;2023-04-25T02:28:49;100981.16;;;6.10;100.00
48053;BME280;33824;51.600;5.718;2023-04-25T02:31:16;100979.59;;;6.17;100.00
48053;BME280;33824;51.600;5.718;2023-04-25T02:33:42;100980.31;;;6.19;100.00
48053;BME280;33824;51.600;5.718;2023-04-25T02:36:08;100987.53;;;6.17;100.00
48053;BME280;33824;51.600;5.718;2023-04-25T02:38:33;100982.41;;;6.15;100.00
48053;BME280;33824;51.600;5.718;2023-04-25T02:40:59;100986.31;;;6.11;100.00
48053;BME280;33824;51.600;5.718;2023-04-25T02:43:24;100978.66;;;6.08;100.00
48053;BME280;33824;51.600;5.718;2023-04-25T02:45:50;100978.78;;;6.07;100.00
48053;BME280;33824;51.600;5.718;2023-04-25T02:48:15;100983.25;;;6.06;100.00
48053;BME280;33824;51.600;5.718;2023-04-25T02:50:41;100984.38;;;6.04;100.00
48053;BME280;33824;51.600;5.718;2023-04-25T02:53:06;100990.63;;;6.03;99.84
48053;BME280;33824;51.600;5.718;2023-04-25T02:55:32;100987.16;;;6.02;99.15
48053;BME280;33824;51.600;5.718;2023-04-25T02:57:57;100989.94;;;6.01;98.98
48053;BME280;33824;51.600;5.718;2023-04-25T03:00:23;100986.88;;;5.96;99.77
48053;BME280;33824;51.600;5.718;2023-04-25T03:02:48;100987.16;;;5.93;99.34
48053;BME280;33824;51.600;5.718;2023-04-25T03:05:14;100991.06;;;5.89;99.93
48053;BME280;33824;51.600;5.718;2023-04-25T03:07:43;100988.56;;;5.87;99.42
48053;BME280;33824;51.600;5.718;2023-04-25T03:10:10;100988.69;;;5.86;99.69
48053;BME280;33824;51.600;5.718;2023-04-25T03:12:35;100988.94;;;5.82;99.42
48053;BME280;33824;51.600;5.718;2023-04-25T03:15:02;100986.56;;;5.79;98.94
48053;BME280;33824;51.600;5.718;2023-04-25T03:17:27;100993.00;;;5.77;99.32
48053;BME280;33824;51.600;5.718;2023-04-25T03:19:54;100993.28;;;5.74;99.36
48053;BME280;33824;51.600;5.718;2023-04-25T03:22:20;100994.25;;;5.73;99.71
48053;BME280;33824;51.600;5.718;2023-04-25T03:24:46;100992.84;;;5.69;100.00
48053;BME280;33824;51.600;5.718;2023-04-25T03:27:12;100994.78;;;5.67;100.00
48053;BME280;33824;51.600;5.718;2023-04-25T03:29:38;101001.75;;;5.68;100.00
48053;BME280;33824;51.600;5.718;2023-04-25T03:32:03;100988.94;;;5.73;100.00
48053;BME280;33824;51.600;5.718;2023-04-25T03:34:29;100983.25;;;5.77;99.66
48053;BME280;33824;51.600;5.718;2023-04-25T03:36:54;100988.13;;;5.82;99.36
48053;BME280;33824;51.600;5.718;2023-04-25T03:39:20;100995.91;;;5.84;99.83
48053;BME280;33824;51.600;5.718;2023-04-25T03:41:47;101003.84;;;5.84;99.71
48053;BME280;33824;51.600;5.718;2023-04-25T03:44:13;101003.00;;;5.83;100.00
48053;BME280;33824;51.600;5.718;2023-04-25T03:46:39;101004.00;;;5.92;99.59
48053;BME280;33824;51.600;5.718;2023-04-25T03:49:05;101006.09;;;5.88;99.77
48053;BME280;33824;51.600;5.718;2023-04-25T03:51:30;101008.16;;;5.85;99.76
48053;BME280;33824;51.600;5.718;2023-04-25T03:53:56;101006.94;;;5.89;99.54
48053;BME280;33824;51.600;5.718;2023-04-25T03:56:22;101003.28;;;5.80;99.30
48053;BME280;33824;51.600;5.718;2023-04-25T03:58:47;101005.25;;;5.78;98.76
48053;BME280;33824;51.600;5.718;2023-04-25T04:01:13;101002.84;;;5.75;98.92
48053;BME280;33824;51.600;5.718;2023-04-25T04:03:39;101013.88;;;5.70;98.56
48053;BME280;33824;51.600;5.718;2023-04-25T04:06:05;101009.84;;;5.66;98.55
48053;BME280;33824;51.600;5.718;2023-04-25T04:08:32;101011.22;;;5.61;98.71
48053;BME280;33824;51.600;5.718;2023-04-25T04:10:58;101007.03;;;5.58;98.99
48053;BME280;33824;51.600;5.718;2023-04-25T04:13:28;101014.25;;;5.56;99.53
48053;BME280;33824;51.600;5.718;2023-04-25T04:15:53;101014.56;;;5.63;99.32
48053;BME280;33824;51.600;5.718;2023-04-25T04:18:19;101019.72;;;5.64;99.48
48053;BME280;33824;51.600;5.718;2023-04-25T04:20:45;101024.16;;;5.64;99.72
48053;BME280;33824;51.600;5.718;2023-04-25T04:23:11;101028.19;;;5.68;99.46
48053;BME280;33824;51.600;5.718;2023-04-25T04:25:36;101017.50;;;5.69;98.74
48053;BME280;33824;51.600;5.718;2023-04-25T04:28:02;101017.50;;;5.69;98.79
48053;BME280;33824;51.600;5.718;2023-04-25T04:30:28;101021.38;;;5.65;99.15
48053;BME280;33824;51.600;5.718;2023-04-25T04:32:57;101018.75;;;5.65;98.88
48053;BME280;33824;51.600;5.718;2023-04-25T04:35:23;101028.47;;;5.65;98.80
48053;BME280;33824;51.600;5.718;2023-04-25T04:37:49;101033.66;;;5.66;98.89
48053;BME280;33824;51.600;5.718;2023-04-25T04:40:18;101038.50;;;5.71;98.77
48053;BME280;33824;51.600;5.718;2023-04-25T04:42:45;101042.97;;;5.70;98.66
48053;BME280;33824;51.600;5.718;2023-04-25T04:45:11;101050.22;;;5.68;98.94
48053;BME280;33824;51.600;5.718;2023-04-25T04:47:38;101049.09;;;5.71;99.17
48053;BME280;33824;51.600;5.718;2023-04-25T04:50:06;101052.44;;;5.73;98.84
48053;BME280;33824;51.600;5.718;2023-04-25T04:52:35;101055.66;;;5.76;98.83
48053;BME280;33824;51.600;5.718;2023-04-25T04:55:01;101050.75;;;5.72;99.27
48053;BME280;33824;51.600;5.718;2023-04-25T04:57:28;101054.25;;;5.72;99.54
48053;BME280;33824;51.600;5.718;2023-04-25T04:59:54;101064.31;;;5.88;98.73
48053;BME280;33824;51.600;5.718;2023-04-25T05:02:19;101064.88;;;5.92;98.62
48053;BME280;33824;51.600;5.718;2023-04-25T05:04:45;101061.53;;;6.09;98.40
48053;BME280;33824;51.600;5.718;2023-04-25T05:07:11;101060.03;;;6.16;98.36
48053;BME280;33824;51.600;5.718;2023-04-25T05:09:36;101065.84;;;6.29;98.11
48053;BME280;33824;51.600;5.718;2023-04-25T05:12:02;101076.84;;;6.44;98.41
48053;BME280;33824;51.600;5.718;2023-04-25T05:14:27;101075.00;;;6.63;98.09
48053;BME280;33824;51.600;5.718;2023-04-25T05:16:53;101076.50;;;6.75;98.21
48053;BME280;33824;51.600;5.718;2023-04-25T05:19:19;101082.59;;;6.86;98.11
48053;BME280;33824;51.600;5.718;2023-04-25T05:21:44;101081.03;;;6.93;97.60
48053;BME280;33824;51.600;5.718;2023-04-25T05:24:10;101089.09;;;7.01;97.41
48053;BME280;33824;51.600;5.718;2023-04-25T05:26:35;101083.91;;;7.09;97.45
48053;BME280;33824;51.600;5.718;2023-04-25T05:29:01;101090.59;;;7.13;97.16
48053;BME280;33824;51.600;5.718;2023-04-25T05:31:26;101094.63;;;7.17;97.16
48053;BME280;33824;51.600;5.718;2023-04-25T05:33:52;101084.16;;;7.15;96.09
48053;BME280;33824;51.600;5.718;2023-04-25T05:36:21;101091.56;;;7.21;96.81
48053;BME280;33824;51.600;5.718;2023-04-25T05:38:46;101103.03;;;7.40;96.51
48053;BME280;33824;51.600;5.718;2023-04-25T05:41:12;101106.88;;;7.55;95.58
48053;BME280;33824;51.600;5.718;2023-04-25T05:43:37;101107.50;;;7.66;95.40
48053;BME280;33824;51.600;5.718;2023-04-25T05:46:03;101107.47;;;7.76;94.83
48053;BME280;33824;51.600;5.718;2023-04-25T05:48:28;101108.28;;;7.77;94.71
48053;BME280;33824;51.600;5.718;2023-04-25T05:50:54;101112.06;;;7.74;94.01
48053;BME280;33824;51.600;5.718;2023-04-25T05:53:20;101121.09;;;7.81;94.70
48053;BME280;33824;51.600;5.718;2023-04-25T05:55:46;101114.47;;;7.95;94.30
48053;BME280;33824;51.600;5.718;2023-04-25T05:58:11;101120.97;;;8.00;95.16
48053;BME280;33824;51.600;5.718;2023-04-25T06:00:37;101120.22;;;8.08;93.92
48053;BME280;33824;51.600;5.718;2023-04-25T06:03:03;101125.84;;;8.05;92.20
48053;BME280;33824;51.600;5.718;2023-04-25T06:05:29;101121.81;;;8.01;91.79
48053;BME280;33824;51.600;5.718;2023-04-25T06:07:55;101124.69;;;8.07;91.80
48053;BME280;33824;51.600;5.718;2023-04-25T06:10:21;101125.94;;;8.13;91.75
48053;BME280;33824;51.600;5.718;2023-04-25T06:12:46;101123.94;;;8.15;90.74
48053;BME280;33824;51.600;5.718;2023-04-25T06:15:12;101123.50;;;8.19;89.99
48053;BME280;33824;51.600;5.718;2023-04-25T06:17:38;101123.88;;;8.25;90.38
48053;BME280;33824;51.600;5.718;2023-04-25T06:20:04;101130.38;;;8.40;90.26
48053;BME280;33824;51.600;5.718;2023-04-25T06:22:29;101126.19;;;8.55;90.32
48053;BME280;33824;51.600;5.718;2023-04-25T06:24:55;101133.16;;;8.56;88.55
48053;BME280;33824;51.600;5.718;2023-04-25T06:27:24;101130.72;;;8.62;87.32
48053;BME280;33824;51.600;5.718;2023-04-25T06:29:49;101123.94;;;8.68;87.85
48053;BME280;33824;51.600;5.718;2023-04-25T06:32:15;101128.38;;;8.59;87.07
48053;BME280;33824;51.600;5.718;2023-04-25T06:34:42;101128.66;;;8.56;87.13
48053;BME280;33824;51.600;5.718;2023-04-25T06:37:07;101131.19;;;8.58;87.31
48053;BME280;33824;51.600;5.718;2023-04-25T06:39:36;101137.59;;;8.73;86.81
48053;BME280;33824;51.600;5.718;2023-04-25T06:42:01;101144.03;;;8.88;86.32
48053;BME280;33824;51.600;5.718;2023-04-25T06:44:27;101140.84;;;9.10;86.13
48053;BME280;33824;51.600;5.718;2023-04-25T06:46:54;101149.78;;;9.27;85.98
48053;BME280;33824;51.600;5.718;2023-04-25T06:49:20;101146.13;;;9.36;85.84
48053;BME280;33824;51.600;5.718;2023-04-25T06:51:45;101152.84;;;9.48;84.79
48053;BME280;33824;51.600;5.718;2023-04-25T06:54:11;101152.34;;;9.45;83.70
48053;BME280;33824;51.600;5.718;2023-04-25T06:56:36;101157.66;;;9.45;82.81
48053;BME280;33824;51.600;5.718;2023-04-25T06:59:02;101164.38;;;9.57;82.93
48053;BME280;33824;51.600;5.718;2023-04-25T07:01:27;101156.09;;;9.68;82.46
48053;BME280;33824;51.600;5.718;2023-04-25T07:03:53;101160.19;;;9.46;80.47
48053;BME280;33824;51.600;5.718;2023-04-25T07:06:18;101161.88;;;9.55;81.36
48053;BME280;33824;51.600;5.718;2023-04-25T07:08:44;101165.25;;;9.66;81.41
48053;BME280;33824;51.600;5.718;2023-04-25T07:11:09;101167.34;;;9.88;80.27
48053;BME280;33824;51.600;5.718;2023-04-25T07:13:35;101172.72;;;10.12;79.84
48053;BME280;33824;51.600;5.718;2023-04-25T07:16:00;101179.94;;;10.20;79.52
48053;BME280;33824;51.600;5.718;2023-04-25T07:18:26;101183.31;;;10.30;78.47
48053;BME280;33824;51.600;5.718;2023-04-25T07:20:51;101170.16;;;10.52;78.78
48053;BME280;33824;51.600;5.718;2023-04-25T07:23:17;101178.69;;;10.72;78.50
48053;BME280;33824;51.600;5.718;2023-04-25T07:25:42;101185.16;;;10.78;78.00
48053;BME280;33824;51.600;5.718;2023-04-25T07:28:08;101178.34;;;10.99;78.37
48053;BME280;33824;51.600;5.718;2023-04-25T07:30:33;101178.84;;;10.95;78.02
48053;BME280;33824;51.600;5.718;2023-04-25T07:33:00;101191.19;;;10.88;77.41
48053;BME280;33824;51.600;5.718;2023-04-25T07:35:25;101187.50;;;10.81;77.49
48053;BME280;33824;51.600;5.718;2023-04-25T07:37:51;101196.00;;;10.68;77.14
48053;BME280;33824;51.600;5.718;2023-04-25T07:40:16;101189.66;;;10.85;75.49
48053;BME280;33824;51.600;5.718;2023-04-25T07:42:42;101183.97;;;11.04;73.75
48053;BME280;33824;51.600;5.718;2023-04-25T07:45:08;101196.81;;;11.01;74.20
48053;BME280;33824;51.600;5.718;2023-04-25T07:47:35;101199.19;;;10.80;71.98
48053;BME280;33824;51.600;5.718;2023-04-25T07:50:01;101208.66;;;10.82;72.77
48053;BME280;33824;51.600;5.718;2023-04-25T07:52:26;101207.84;;;10.90;73.36
48053;BME280;33824;51.600;5.718;2023-04-25T07:54:52;101210.50;;;10.82;71.95
48053;BME280;33824;51.600;5.718;2023-04-25T07:57:18;101220.84;;;10.93;72.45
48053;BME280;33824;51.600;5.718;2023-04-25T07:59:44;101222.31;;;11.12;70.62
48053;BME280;33824;51.600;5.718;2023-04-25T08:02:10;101223.50;;;11.01;65.30
48053;BME280;33824;51.600;5.718;2023-04-25T08:04:36;101227.84;;;11.02;68.54
48053;BME280;33824;51.600;5.718;2023-04-25T08:07:01;101227.50;;;10.89;66.21
48053;BME280;33824;51.600;5.718;2023-04-25T08:09:27;101228.53;;;10.80;66.52
48053;BME280;33824;51.600;5.718;2023-04-25T08:11:53;101227.66;;;10.55;66.61
48053;BME280;33824;51.600;5.718;2023-04-25T08:14:18;101236.16;;;10.67;68.21
48053;BME280;33824;51.600;5.718;2023-04-25T08:16:44;101236.00;;;10.84;68.52
48053;BME280;33824;51.600;5.718;2023-04-25T08:19:10;101237.34;;;11.04;68.41
48053;BME280;33824;51.600;5.718;2023-04-25T08:21:36;101247.19;;;11.20;67.38
48053;BME280;33824;51.600;5.718;2023-04-25T08:24:02;101248.34;;;11.26;65.50
48053;BME280;33824;51.600;5.718;2023-04-25T08:26:28;101248.72;;;11.15;65.06
48053;BME280;33824;51.600;5.718;2023-04-25T08:28:53;101252.66;;;11.51;65.38
48053;BME280;33824;51.600;5.718;2023-04-25T08:31:19;101249.81;;;11.52;63.17
48053;BME280;33824;51.600;5.718;2023-04-25T08:33:45;101255.03;;;11.30;60.02
48053;BME280;33824;51.600;5.718;2023-04-25T08:36:10;101260.31;;;11.46;62.95
48053;BME280;33824;51.600;5.718;2023-04-25T08:38:36;101247.63;;;11.56;61.01
48053;BME280;33824;51.600;5.718;2023-04-25T08:41:02;101250.53;;;12.01;62.94
48053;BME280;33824;51.600;5.718;2023-04-25T08:43:29;101253.22;;;12.01;60.96
48053;BME280;33824;51.600;5.718;2023-04-25T08:45:58;101256.78;;;11.78;60.13
48053;BME280;33824;51.600;5.718;2023-04-25T08:48:26;101259.66;;;11.60;62.42
48053;BME280;33824;51.600;5.718;2023-04-25T08:50:53;101268.59;;;11.83;63.34
48053;BME280;33824;51.600;5.718;2023-04-25T08:53:26;101271.56;;;12.05;63.05
48053;BME280;33824;51.600;5.718;2023-04-25T08:55:54;101268.63;;;12.22;61.31
48053;BME280;33824;51.600;5.718;2023-04-25T08:58:21;101270.94;;;12.25;61.61
48053;BME280;33824;51.600;5.718;2023-04-25T09:00:48;101267.94;;;12.28;62.16
48053;BME280;33824;51.600;5.718;2023-04-25T09:03:14;101281.00;;;12.23;62.05
48053;BME280;33824;51.600;5.718;2023-04-25T09:05:40;101280.38;;;12.13;61.24
48053;BME280;33824;51.600;5.718;2023-04-25T09:08:06;101288.59;;;12.03;61.63
48053;BME280;33824;51.600;5.718;2023-04-25T09:10:32;101305.50;;;11.96;62.47
48053;BME280;33824;51.600;5.718;2023-04-25T09:13:12;101308.38;;;11.86;61.82
48053;BME280;33824;51.600;5.718;2023-04-25T09:15:48;101310.50;;;11.91;62.50
48053;BME280;33824;51.600;5.718;2023-04-25T09:18:25;101315.91;;;12.22;60.25
48053;BME280;33824;51.600;5.718;2023-04-25T09:20:55;101309.75;;;12.52;57.98
48053;BME280;33824;51.600;5.718;2023-04-25T09:23:22;101311.22;;;12.63;60.41
48053;BME280;33824;51.600;5.718;2023-04-25T09:25:49;101320.47;;;12.52;59.16
48053;BME280;33824;51.600;5.718;2023-04-25T09:28:15;101324.22;;;12.74;60.38
48053;BME280;33824;51.600;5.718;2023-04-25T09:30:41;101323.59;;;12.86;60.17
48053;BME280;33824;51.600;5.718;2023-04-25T09:33:09;101324.13;;;12.59;59.41
48053;BME280;33824;51.600;5.718;2023-04-25T09:35:39;101327.41;;;12.38;60.31
48053;BME280;33824;51.600;5.718;2023-04-25T09:38:10;101335.69;;;12.13;61.07
48053;BME280;33824;51.600;5.718;2023-04-25T09:40:45;101333.88;;;11.97;61.44
48053;BME280;33824;51.600;5.718;2023-04-25T09:43:19;101355.16;;;11.74;62.30
48053;BME280;33824;51.600;5.718;2023-04-25T09:45:45;101360.97;;;11.21;64.17
48053;BME280;33824;51.600;5.718;2023-04-25T09:48:12;101374.25;;;10.47;66.16
48053;BME280;33824;51.600;5.718;2023-04-25T09:50:40;101385.94;;;9.94;67.79
48053;BME280;33824;51.600;5.718;2023-04-25T09:53:06;101373.28;;;9.71;68.67
48053;BME280;33824;51.600;5.718;2023-04-25T09:55:34;101379.19;;;9.21;69.23
48053;BME280;33824;51.600;5.718;2023-04-25T09:58:04;101380.66;;;9.15;69.10
48053;BME280;33824;51.600;5.718;2023-04-25T10:00:33;101377.78;;;9.09;69.66
48053;BME280;33824;51.600;5.718;2023-04-25T10:03:01;101386.13;;;9.14;69.72
48053;BME280;33824;51.600;5.718;2023-04-25T10:05:30;101390.94;;;9.28;70.77
48053;BME280;33824;51.600;5.718;2023-04-25T10:07:59;101390.69;;;9.39;71.15
48053;BME280;33824;51.600;5.718;2023-04-25T10:10:27;101381.94;;;9.29;70.81
48053;BME280;33824;51.600;5.718;2023-04-25T10:12:54;101385.53;;;9.81;70.37
48053;BME280;33824;51.600;5.718;2023-04-25T10:15:21;101382.81;;;9.99;69.41
48053;BME280;33824;51.600;5.718;2023-04-25T10:17:47;101381.84;;;10.26;70.41
48053;BME280;33824;51.600;5.718;2023-04-25T10:20:13;101371.53;;;10.81;69.56
48053;BME280;33824;51.600;5.718;2023-04-25T10:22:42;101368.44;;;11.01;68.56
48053;BME280;33824;51.600;5.718;2023-04-25T10:25:08;101367.63;;;11.17;67.76
48053;BME280;33824;51.600;5.718;2023-04-25T10:27:35;101365.97;;;11.32;66.01
48053;BME280;33824;51.600;5.718;2023-04-25T10:30:14;101358.13;;;11.47;62.70
48053;BME280;33824;51.600;5.718;2023-04-25T10:32:44;101358.31;;;11.37;64.46
48053;BME280;33824;51.600;5.718;2023-04-25T10:35:24;101358.81;;;11.81;65.24
48053;BME280;33824;51.600;5.718;2023-04-25T10:40:22;101350.44;;;12.47;63.77
48053;BME280;33824;51.600;5.718;2023-04-25T10:42:48;101355.63;;;12.41;63.36
48053;BME280;33824;51.600;5.718;2023-04-25T10:45:14;101351.94;;;12.81;64.21
48053;BME280;33824;51.600;5.718;2023-04-25T10:47:46;101348.28;;;13.05;56.81
48053;BME280;33824;51.600;5.718;2023-04-25T10:50:11;101344.66;;;13.20;56.10
48053;BME280;33824;51.600;5.718;2023-04-25T10:52:39;101342.66;;;13.60;61.62
48053;BME280;33824;51.600;5.718;2023-04-25T10:55:06;101345.56;;;13.87;59.16
48053;BME280;33824;51.600;5.718;2023-04-25T10:57:36;101353.38;;;13.60;55.69
48053;BME280;33824;51.600;5.718;2023-04-25T11:00:19;101356.59;;;12.79;54.58
48053;BME280;33824;51.600;5.718;2023-04-25T11:02:55;101354.19;;;12.22;58.21
48053;BME280;33824;51.600;5.718;2023-04-25T11:05:29;101364.00;;;11.83;60.45
48053;BME280;33824;51.600;5.718;2023-04-25T11:07:57;101365.31;;;11.79;59.53
48053;BME280;33824;51.600;5.718;2023-04-25T11:10:27;101365.81;;;11.58;57.72
48053;BME280;33824;51.600;5.718;2023-04-25T11:12:54;101382.16;;;11.47;58.75
48053;BME280;33824;51.600;5.718;2023-04-25T11:15:19;101378.97;;;11.27;60.50
48053;BME280;33824;51.600;5.718;2023-04-25T11:17:45;101383.47;;;11.11;61.97
48053;BME280;33824;51.600;5.718;2023-04-25T11:20:15;101386.09;;;10.94;62.90
48053;BME280;33824;51.600;5.718;2023-04-25T11:22:41;101385.53;;;10.75;62.40
48053;BME280;33824;51.600;5.718;2023-04-25T11:25:10;101391.31;;;10.62;63.32
48053;BME280;33824;51.600;5.718;2023-04-25T11:27:52;101392.41;;;10.43;63.61
48053;BME280;33824;51.600;5.718;2023-04-25T11:30:18;101397.75;;;10.43;63.91
48053;BME280;33824;51.600;5.718;2023-04-25T11:32:44;101398.31;;;10.55;64.31
48053;BME280;33824;51.600;5.718;2023-04-25T11:35:10;101395.53;;;10.65;64.66
48053;BME280;33824;51.600;5.718;2023-04-25T11:37:39;101405.19;;;10.74;65.07
48053;BME280;33824;51.600;5.718;2023-04-25T11:40:05;101409.44;;;10.92;64.90
48053;BME280;33824;51.600;5.718;2023-04-25T11:42:32;101410.31;;;11.09;64.77
48053;BME280;33824;51.600;5.718;2023-04-25T11:44:59;101412.34;;;11.31;65.20
48053;BME280;33824;51.600;5.718;2023-04-25T11:47:30;101413.03;;;11.57;65.14
48053;BME280;33824;51.600;5.718;2023-04-25T11:49:55;101405.41;;;11.79;64.43
48053;BME280;33824;51.600;5.718;2023-04-25T11:52:22;101408.22;;;11.85;62.94
48053;BME280;33824;51.600;5.718;2023-04-25T11:54:48;101416.75;;;11.97;62.40
48053;BME280;33824;51.600;5.718;2023-04-25T11:57:13;101398.47;;;12.25;63.48
48053;BME280;33824;51.600;5.718;2023-04-25T11:59:39;101420.78;;;12.48;61.95
48053;BME280;33824;51.600;5.718;2023-04-25T12:02:05;101401.13;;;12.72;62.08
48053;BME280;33824;51.600;5.718;2023-04-25T12:04:32;101405.84;;;13.01;59.54
48053;BME280;33824;51.600;5.718;2023-04-25T12:06:58;101391.63;;;13.31;59.15
48053;BME280;33824;51.600;5.718;2023-04-25T12:09:32;101396.97;;;13.91;60.85
48053;BME280;33824;51.600;5.718;2023-04-25T12:12:00;101392.97;;;14.39;58.68
48053;BME280;33824;51.600;5.718;2023-04-25T12:14:30;101399.53;;;14.36;54.72
48053;BME280;33824;51.600;5.718;2023-04-25T12:16:59;101403.09;;;13.39;52.75
48053;BME280;33824;51.600;5.718;2023-04-25T12:19:25;101409.00;;;13.35;56.10
48053;BME280;33824;51.600;5.718;2023-04-25T12:21:51;101412.53;;;13.05;56.52
48053;BME280;33824;51.600;5.718;2023-04-25T12:24:22;101415.66;;;13.16;55.06
48053;BME280;33824;51.600;5.718;2023-04-25T12:29:21;101400.34;;;13.25;52.69
48053;BME280;33824;51.600;5.718;2023-04-25T12:31:48;101404.41;;;13.43;51.07
48053;BME280;33824;51.600;5.718;2023-04-25T12:34:14;101403.47;;;13.74;51.87
48053;BME280;33824;51.600;5.718;2023-04-25T12:36:40;101405.50;;;13.94;50.66
48053;BME280;33824;51.600;5.718;2023-04-25T12:39:06;101401.53;;;14.05;50.46
48053;BME280;33824;51.600;5.718;2023-04-25T12:41:32;101400.28;;;13.93;48.27
48053;BME280;33824;51.600;5.718;2023-04-25T12:43:58;101410.50;;;14.12;52.30
48053;BME280;33824;51.600;5.718;2023-04-25T12:46:24;101410.31;;;14.14;48.02
48053;BME280;33824;51.600;5.718;2023-04-25T12:48:49;101415.84;;;13.98;47.52
48053;BME280;33824;51.600;5.718;2023-04-25T12:51:15;101409.25;;;14.23;48.59
48053;BME280;33824;51.600;5.718;2023-04-25T12:53:40;101403.91;;;14.37;46.72
48053;BME280;33824;51.600;5.718;2023-04-25T12:56:09;101406.00;;;14.42;45.42
48053;BME280;33824;51.600;5.718;2023-04-25T12:58:35;101408.41;;;14.52;46.63